createdAt,value
2019-04-11T00:00:09.081Z,62.67
2019-04-11T00:01:10.028Z,62.67
2019-04-11T00:02:08.899Z,62.88
2019-04-11T00:03:09.199Z,62.70
2019-04-11T00:04:08.837Z,62.88
2019-04-11T00:05:08.841Z,62.80
2019-04-11T00:06:09.579Z,62.59
2019-04-11T00:07:08.858Z,62.77
2019-04-11T00:08:10.045Z,62.67
2019-04-11T00:09:08.811Z,62.77
2019-04-11T00:10:08.780Z,62.88
2019-04-11T00:11:09.442Z,62.90
2019-04-11T00:12:08.776Z,62.57
2019-04-11T00:13:17.265Z,62.77
2019-04-11T00:14:10.323Z,63.09
2019-04-11T00:15:08.731Z,62.80
2019-04-11T00:16:08.884Z,62.77
2019-04-11T00:17:09.650Z,62.59
2019-04-11T00:18:08.737Z,62.70
2019-04-11T00:19:09.421Z,63.11
2019-04-11T00:20:09.674Z,63.21
2019-04-11T00:21:08.793Z,62.98
2019-04-11T00:22:09.006Z,63.01
2019-04-11T00:23:08.678Z,62.80
2019-04-11T00:24:08.625Z,63.42
2019-04-11T00:25:09.473Z,62.70
2019-04-11T00:26:08.613Z,62.80
2019-04-11T00:27:08.758Z,62.80
2019-04-11T00:28:09.727Z,63.21
2019-04-11T00:29:08.593Z,62.80
2019-04-11T00:30:08.564Z,63.21
2019-04-11T00:31:08.564Z,63.24
2019-04-11T00:32:09.673Z,63.11
2019-04-11T00:33:09.729Z,63.01
2019-04-11T00:34:08.893Z,63.11
2019-04-11T00:35:09.224Z,63.01
2019-04-11T00:36:08.507Z,63.45
2019-04-11T00:37:08.658Z,63.87
2019-04-11T00:38:09.705Z,63.76
2019-04-11T00:39:08.499Z,63.53
2019-04-11T00:40:08.970Z,63.45
2019-04-11T00:41:08.450Z,63.21
2019-04-11T00:42:08.445Z,63.14
2019-04-11T00:43:09.471Z,63.01
2019-04-11T00:44:08.426Z,62.80
2019-04-11T00:45:09.508Z,63.01
2019-04-11T00:46:08.395Z,62.90
2019-04-11T00:47:08.928Z,63.45
2019-04-11T00:48:09.242Z,63.42
2019-04-11T00:49:08.385Z,63.53
2019-04-11T00:50:08.360Z,63.11
2019-04-11T00:51:08.334Z,64.04
2019-04-11T00:52:08.937Z,63.04
2019-04-11T00:53:08.348Z,63.76
2019-04-11T00:54:08.770Z,63.56
2019-04-11T00:55:08.305Z,63.11
2019-04-11T00:56:09.740Z,63.53
2019-04-11T00:57:08.516Z,63.56
2019-04-11T00:58:08.292Z,63.45
2019-04-11T00:59:08.253Z,63.45
2019-04-11T01:00:09.039Z,63.24
2019-04-11T01:01:09.163Z,63.35
2019-04-11T01:02:09.388Z,63.73
2019-04-11T01:03:08.203Z,63.14
2019-04-11T01:04:08.186Z,63.35
2019-04-11T01:05:08.184Z,63.76
2019-04-11T01:06:08.176Z,64.07
2019-04-11T01:07:08.910Z,63.56
2019-04-11T01:08:08.321Z,63.97
2019-04-11T01:09:08.282Z,63.97
2019-04-11T01:10:08.111Z,64.39
2019-04-11T01:11:08.118Z,64.18
2019-04-11T01:12:08.151Z,64.11
2019-04-11T01:13:09.145Z,63.97
2019-04-11T01:14:08.080Z,64.28
2019-04-11T01:15:08.129Z,64.31
2019-04-11T01:16:09.100Z,64.73
2019-04-11T01:17:09.322Z,65.14
2019-04-11T01:18:08.043Z,64.80
2019-04-11T01:19:08.762Z,63.97
2019-04-11T01:20:08.157Z,63.90
2019-04-11T01:21:08.252Z,64.18
2019-04-11T01:22:08.261Z,64.94
2019-04-11T01:23:08.952Z,64.70
2019-04-11T01:24:09.237Z,64.52
2019-04-11T01:25:08.428Z,64.28
2019-04-11T01:26:08.707Z,64.42
2019-04-11T01:27:07.956Z,64.21
2019-04-11T01:28:07.979Z,64.49
2019-04-11T01:29:07.918Z,65.01
2019-04-11T01:30:08.181Z,64.62
2019-04-11T01:31:07.907Z,64.42
2019-04-11T01:32:08.372Z,64.42
2019-04-11T01:33:07.890Z,64.42
2019-04-11T01:34:08.578Z,64.83
2019-04-11T01:35:08.863Z,64.28
2019-04-11T01:36:08.869Z,64.42
2019-04-11T01:37:07.815Z,64.62
2019-04-11T01:38:08.275Z,64.52
2019-04-11T01:39:08.489Z,64.83
2019-04-11T01:40:07.873Z,65.04
2019-04-11T01:41:07.785Z,64.52
2019-04-11T01:42:09.051Z,64.42
2019-04-11T01:43:08.110Z,64.94
2019-04-11T01:44:08.949Z,64.31
2019-04-11T01:45:07.735Z,64.62
2019-04-11T01:46:07.797Z,64.94
2019-04-11T01:47:08.727Z,64.73
2019-04-11T01:48:07.709Z,64.73
2019-04-11T01:49:08.099Z,64.62
2019-04-11T01:50:08.452Z,64.62
2019-04-11T01:51:09.608Z,64.73
2019-04-11T01:52:07.662Z,64.62
2019-04-11T01:53:08.852Z,64.97
2019-04-11T01:54:07.787Z,65.07
2019-04-11T01:55:08.262Z,65.04
2019-04-11T01:56:07.613Z,64.73
2019-04-11T01:57:07.636Z,64.83
2019-04-11T01:58:08.613Z,65.25
2019-04-11T01:59:07.559Z,65.48
2019-04-11T02:00:08.038Z,65.87
2019-04-11T02:01:08.349Z,65.66
2019-04-11T02:02:07.576Z,65.69
2019-04-11T02:03:08.763Z,65.90
2019-04-11T02:04:07.736Z,65.90
2019-04-11T02:05:08.352Z,65.69
2019-04-11T02:06:07.683Z,65.59
2019-04-11T02:07:07.515Z,65.48
2019-04-11T02:08:07.493Z,66.21
2019-04-11T02:09:08.073Z,65.59
2019-04-11T02:10:08.450Z,66.11
2019-04-11T02:11:08.197Z,66.21
2019-04-11T02:12:07.522Z,66.14
2019-04-11T02:13:07.876Z,66.14
2019-04-11T02:14:14.106Z,66.45
2019-04-11T02:15:08.410Z,66.56
2019-04-11T02:16:08.429Z,66.77
2019-04-11T02:17:08.470Z,66.24
2019-04-11T02:18:07.624Z,66.35
2019-04-11T02:19:07.934Z,66.66
2019-04-11T02:20:07.346Z,66.66
2019-04-11T02:21:07.334Z,66.66
2019-04-11T02:22:07.861Z,66.66
2019-04-11T02:23:07.310Z,66.77
2019-04-11T02:24:07.839Z,66.56
2019-04-11T02:25:08.111Z,66.77
2019-04-11T02:26:07.292Z,66.66
2019-04-11T02:27:08.501Z,66.77
2019-04-11T02:28:08.498Z,66.77
2019-04-11T02:29:07.266Z,66.56
2019-04-11T02:30:08.803Z,66.66
2019-04-11T02:31:09.672Z,66.45
2019-04-11T02:32:07.563Z,66.66
2019-04-11T02:33:09.402Z,66.77
2019-04-11T02:34:08.648Z,66.66
2019-04-11T02:35:08.505Z,66.35
2019-04-11T02:36:07.977Z,66.77
2019-04-11T02:37:07.227Z,66.66
2019-04-11T02:38:08.017Z,66.66
2019-04-11T02:39:12.142Z,66.97
2019-04-11T02:40:08.219Z,66.66
2019-04-11T02:41:08.574Z,66.80
2019-04-11T02:42:08.812Z,66.87
2019-04-11T02:43:09.078Z,67.18
2019-04-11T02:44:26.520Z,66.87
2019-04-11T02:45:22.409Z,66.87
2019-04-11T02:46:17.549Z,66.97
2019-04-11T02:47:13.701Z,67.08
2019-04-11T02:48:10.070Z,67.32
2019-04-11T02:49:08.122Z,67.08
2019-04-11T02:50:08.184Z,66.90
2019-04-11T02:51:07.628Z,67.08
2019-04-11T02:52:07.324Z,67.29
2019-04-11T02:53:07.302Z,67.11
2019-04-11T02:54:07.735Z,67.21
2019-04-11T02:55:09.702Z,67.00
2019-04-11T02:56:09.278Z,67.08
2019-04-11T02:57:07.940Z,67.49
2019-04-11T02:58:07.803Z,67.60
2019-04-11T02:59:06.946Z,67.83
2019-04-11T03:01:31.929Z,68.15
2019-04-11T03:02:24.378Z,68.04
2019-04-11T03:03:25.160Z,68.46
2019-04-11T03:04:24.359Z,67.94
2019-04-11T03:05:24.644Z,67.94
2019-04-11T03:06:23.601Z,68.04
2019-04-11T03:07:24.731Z,68.15
2019-04-11T03:08:24.702Z,68.46
2019-04-11T03:09:24.146Z,68.15
2019-04-11T03:10:24.860Z,68.15
2019-04-11T03:11:25.312Z,68.04
2019-04-11T03:12:24.154Z,68.49
2019-04-11T03:13:25.250Z,68.25
2019-04-11T03:14:23.490Z,68.25
2019-04-11T03:15:37.694Z,68.25
2019-04-11T03:16:35.309Z,68.56
2019-04-11T03:17:30.790Z,68.77
2019-04-11T03:18:40.334Z,68.56
2019-04-11T03:19:37.557Z,68.56
2019-04-11T03:20:33.711Z,68.25
2019-04-11T03:21:26.880Z,68.66
2019-04-11T03:22:24.737Z,68.80
2019-04-11T03:23:24.962Z,68.77
2019-04-11T03:24:24.470Z,68.77
2019-04-11T03:25:24.597Z,68.66
2019-04-11T03:26:24.931Z,68.49
2019-04-11T03:27:25.989Z,69.32
2019-04-11T03:28:27.516Z,69.22
2019-04-11T03:29:26.184Z,69.43
2019-04-11T03:30:34.921Z,69.43
2019-04-11T03:32:05.866Z,68.80
2019-04-11T03:33:18.311Z,69.12
2019-04-11T03:34:15.780Z,69.53
2019-04-11T03:35:12.320Z,69.53
2019-04-11T03:37:49.893Z,69.98
2019-04-11T03:38:46.900Z,70.15
2019-04-11T03:39:45.824Z,70.40
2019-04-11T03:40:43.842Z,70.19
2019-04-11T03:41:37.302Z,69.77
2019-04-11T03:42:39.759Z,70.09
2019-04-11T03:43:35.494Z,70.29
2019-04-11T03:44:31.444Z,70.09
2019-04-11T03:45:45.306Z,70.40
2019-04-11T03:46:37.711Z,70.09
2019-04-11T03:47:38.891Z,70.29
2019-04-11T03:48:39.814Z,70.19
2019-04-11T03:49:32.811Z,70.29
2019-04-11T03:50:28.006Z,70.40
2019-04-11T03:51:25.748Z,70.09
2019-04-11T03:52:23.764Z,70.50
2019-04-11T03:53:25.412Z,70.50
2019-04-11T03:54:23.203Z,70.29
2019-04-11T03:55:23.408Z,70.61
2019-04-11T03:56:24.412Z,70.40
2019-04-11T03:57:23.629Z,70.40
2019-04-11T03:58:23.831Z,70.84
2019-04-11T03:59:23.753Z,70.92
2019-04-11T04:00:24.751Z,70.40
2019-04-11T04:01:25.160Z,71.05
2019-04-11T04:02:24.559Z,70.32
2019-04-11T04:03:24.350Z,71.05
2019-04-11T04:04:23.859Z,71.05
2019-04-11T04:05:23.821Z,70.84
2019-04-11T04:06:23.409Z,70.95
2019-04-11T04:07:23.490Z,71.16
2019-04-11T04:08:24.596Z,71.16
2019-04-11T04:09:24.094Z,71.16
2019-04-11T04:10:23.615Z,71.47
2019-04-11T04:11:26.603Z,71.37
2019-04-11T04:12:22.896Z,71.58
2019-04-11T04:13:24.777Z,71.68
2019-04-11T04:14:24.279Z,71.58
2019-04-11T04:15:35.773Z,71.47
2019-04-11T04:16:31.073Z,71.58
2019-04-11T04:17:25.350Z,71.47
2019-04-11T04:18:23.908Z,71.47
2019-04-11T04:19:24.870Z,72.09
2019-04-11T04:20:24.552Z,71.81
2019-04-11T04:21:24.644Z,71.61
2019-04-11T04:22:24.546Z,71.71
2019-04-11T04:23:22.794Z,71.58
2019-04-11T04:24:22.894Z,71.61
2019-04-11T04:25:24.277Z,71.81
2019-04-11T04:26:22.883Z,71.92
2019-04-11T04:27:25.480Z,72.24
2019-04-11T04:28:23.722Z,72.24
2019-04-11T04:29:25.126Z,72.13
2019-04-11T04:30:24.525Z,72.34
2019-04-11T04:31:24.310Z,72.34
2019-04-11T04:32:23.687Z,72.02
2019-04-11T04:33:23.230Z,72.13
2019-04-11T04:34:23.898Z,72.16
2019-04-11T04:35:24.104Z,72.16
2019-04-11T04:36:24.592Z,72.13
2019-04-11T04:37:24.835Z,72.16
2019-04-11T04:38:23.557Z,72.16
2019-04-11T04:39:23.412Z,72.27
2019-04-11T04:40:38.893Z,72.27
2019-04-11T04:41:35.058Z,72.65
2019-04-11T04:42:31.160Z,72.96
2019-04-11T04:43:25.069Z,72.68
2019-04-11T04:44:24.189Z,72.89
2019-04-11T04:45:23.926Z,73.00
2019-04-11T04:46:34.782Z,73.52
2019-04-11T04:47:32.510Z,73.41
2019-04-11T04:48:26.725Z,72.58
2019-04-11T04:49:23.689Z,72.78
2019-04-11T04:50:24.129Z,72.78
2019-04-11T04:51:24.323Z,72.68
2019-04-11T04:52:22.470Z,72.47
2019-04-11T04:53:25.728Z,72.13
2019-04-11T04:54:24.056Z,71.92
2019-04-11T04:55:23.605Z,72.58
2019-04-11T04:56:26.446Z,72.34
2019-04-11T04:57:24.486Z,72.24
2019-04-11T04:58:24.334Z,72.13
2019-04-11T04:59:23.632Z,72.13
2019-04-11T05:00:23.416Z,72.44
2019-04-11T05:01:23.766Z,72.02
2019-04-11T05:02:24.091Z,72.13
2019-04-11T05:03:24.069Z,72.55
2019-04-11T05:04:23.494Z,71.92
2019-04-11T05:05:24.189Z,72.24
2019-04-11T05:06:23.979Z,72.34
2019-04-11T05:07:23.564Z,72.13
2019-04-11T05:08:22.846Z,71.81
2019-04-11T05:09:23.550Z,71.92
2019-04-11T05:10:22.319Z,72.34
2019-04-11T05:11:23.176Z,72.75
2019-04-11T05:12:22.620Z,72.75
2019-04-11T05:13:23.731Z,72.09
2019-04-11T05:14:23.340Z,72.09
2019-04-11T05:15:22.234Z,72.20
2019-04-11T05:16:22.228Z,71.99
2019-04-11T05:17:23.115Z,71.61
2019-04-11T05:18:22.209Z,71.58
2019-04-11T05:19:23.715Z,71.81
2019-04-11T05:20:22.178Z,71.78
2019-04-11T05:21:23.265Z,71.40
2019-04-11T05:22:22.465Z,71.47
2019-04-11T05:23:23.434Z,71.37
2019-04-11T05:24:22.905Z,71.26
2019-04-11T05:25:22.293Z,71.05
2019-04-11T05:26:22.166Z,71.16
2019-04-11T05:27:22.935Z,71.58
2019-04-11T05:28:22.075Z,71.58
2019-04-11T05:29:22.072Z,71.33
2019-04-11T05:30:23.132Z,70.92
2019-04-11T05:31:22.698Z,71.23
2019-04-11T05:32:22.052Z,71.23
2019-04-11T05:33:22.943Z,71.23
2019-04-11T05:34:22.027Z,71.12
2019-04-11T05:35:22.796Z,71.33
2019-04-11T05:36:22.740Z,71.47
2019-04-11T05:37:22.803Z,71.37
2019-04-11T05:38:22.989Z,71.26
2019-04-11T05:39:21.965Z,71.12
2019-04-11T05:40:21.978Z,71.02
2019-04-11T05:41:23.083Z,71.23
2019-04-11T05:42:25.244Z,71.12
2019-04-11T05:43:28.133Z,71.12
2019-04-11T05:44:23.131Z,70.92
2019-04-11T05:45:24.443Z,71.09
2019-04-11T05:46:31.134Z,71.30
2019-04-11T05:47:23.403Z,70.57
2019-04-11T05:48:24.039Z,70.26
2019-04-11T05:49:23.182Z,70.78
2019-04-11T05:50:22.188Z,70.47
2019-04-11T05:51:23.498Z,70.33
2019-04-11T05:52:21.891Z,70.54
2019-04-11T05:53:22.790Z,70.12
2019-04-11T05:54:21.797Z,69.84
2019-04-11T05:55:21.848Z,70.05
2019-04-11T05:56:21.850Z,69.40
2019-04-11T05:57:24.242Z,69.92
2019-04-11T05:58:22.781Z,70.12
2019-04-11T05:59:23.923Z,70.33
2019-04-11T06:00:21.760Z,70.12
2019-04-11T06:01:22.384Z,70.23
2019-04-11T06:02:21.731Z,69.81
2019-04-11T06:03:21.787Z,70.09
2019-04-11T06:04:24.117Z,69.40
2019-04-11T06:05:24.505Z,69.99
2019-04-11T06:06:22.754Z,69.78
2019-04-11T06:07:21.652Z,70.09
2019-04-11T06:08:26.948Z,70.02
2019-04-11T06:09:22.968Z,69.78
2019-04-11T06:10:21.920Z,69.89
2019-04-11T06:11:24.067Z,69.99
2019-04-11T06:12:21.659Z,70.20
2019-04-11T06:13:22.667Z,70.20
2019-04-11T06:14:22.839Z,69.99
2019-04-11T06:15:21.599Z,69.92
2019-04-11T06:16:21.540Z,69.68
2019-04-11T06:17:21.887Z,70.30
2019-04-11T06:18:26.985Z,68.91
2019-04-11T06:19:22.924Z,69.12
2019-04-11T06:20:22.059Z,69.47
2019-04-11T06:21:22.050Z,69.57
2019-04-11T06:22:21.557Z,69.12
2019-04-11T06:23:21.487Z,69.12
2019-04-11T06:24:21.472Z,69.33
2019-04-11T06:25:21.457Z,69.33
2019-04-11T06:26:22.906Z,68.68
2019-04-11T06:27:22.232Z,68.37
2019-04-11T06:28:22.199Z,68.57
2019-04-11T06:29:25.900Z,68.88
2019-04-11T06:30:22.427Z,68.47
2019-04-11T06:31:22.039Z,68.16
2019-04-11T06:32:21.617Z,67.95
2019-04-11T06:33:22.607Z,68.19
2019-04-11T06:34:24.916Z,68.47
2019-04-11T06:35:22.017Z,68.68
2019-04-11T06:36:21.340Z,68.78
2019-04-11T06:37:21.375Z,68.68
2019-04-11T06:38:21.319Z,68.37
2019-04-11T06:39:21.302Z,68.13
2019-04-11T06:40:21.324Z,68.02
2019-04-11T06:41:22.139Z,68.23
2019-04-11T06:42:24.105Z,68.13
2019-04-11T06:43:21.263Z,66.88
2019-04-11T06:44:21.628Z,67.50
2019-04-11T06:45:21.809Z,68.02
2019-04-11T06:46:21.259Z,68.02
2019-04-11T06:47:21.250Z,67.92
2019-04-11T06:48:23.327Z,67.99
2019-04-11T06:49:22.426Z,68.10
2019-04-11T06:50:21.180Z,68.20
2019-04-11T06:51:21.984Z,67.47
2019-04-11T06:52:21.163Z,66.85
2019-04-11T06:53:21.227Z,67.47
2019-04-11T06:54:21.209Z,66.93
2019-04-11T06:55:21.136Z,66.61
2019-04-11T06:56:21.135Z,67.03
2019-04-11T06:57:21.597Z,67.03
2019-04-11T06:58:21.495Z,66.41
2019-04-11T06:59:21.750Z,66.47
2019-04-11T07:00:23.083Z,66.61
2019-04-11T07:01:22.308Z,66.58
2019-04-11T07:02:23.286Z,66.58
2019-04-11T07:03:25.539Z,66.27
2019-04-11T07:04:22.050Z,66.47
2019-04-11T07:05:21.010Z,66.58
2019-04-11T07:06:21.725Z,66.78
2019-04-11T07:07:21.055Z,66.17
2019-04-11T07:08:22.263Z,66.38
2019-04-11T07:09:22.190Z,66.17
2019-04-11T07:10:22.209Z,65.55
2019-04-11T07:11:21.005Z,65.41
2019-04-11T07:12:22.091Z,65.72
2019-04-11T07:13:20.926Z,66.17
2019-04-11T07:14:20.934Z,66.55
2019-04-11T07:15:21.043Z,66.55
2019-04-11T07:16:21.918Z,66.47
2019-04-11T07:17:21.156Z,66.14
2019-04-11T07:18:20.900Z,66.03
2019-04-11T07:19:21.883Z,66.11
2019-04-11T07:20:20.900Z,66.21
2019-04-11T07:21:21.217Z,66.00
2019-04-11T07:22:20.978Z,66.00
2019-04-11T07:23:20.814Z,65.48
2019-04-11T07:24:20.802Z,65.48
2019-04-11T07:25:20.790Z,64.55
2019-04-11T07:26:20.927Z,65.38
2019-04-11T07:27:20.834Z,65.07
2019-04-11T07:28:20.841Z,65.59
2019-04-11T07:29:21.557Z,65.66
2019-04-11T07:30:22.808Z,65.66
2019-04-11T07:31:21.623Z,65.66
2019-04-11T07:32:22.151Z,65.35
2019-04-11T07:33:20.749Z,65.77
2019-04-11T07:34:21.295Z,65.14
2019-04-11T07:35:21.444Z,64.76
2019-04-11T07:36:21.078Z,65.25
2019-04-11T07:37:21.334Z,65.66
2019-04-11T07:38:21.011Z,65.66
2019-04-11T07:39:20.703Z,65.84
2019-04-11T07:40:21.844Z,64.59
2019-04-11T07:41:21.625Z,65.22
2019-04-11T07:42:21.296Z,64.90
2019-04-11T07:43:20.625Z,63.97
2019-04-11T07:44:21.714Z,64.28
2019-04-11T07:45:20.999Z,63.87
2019-04-11T07:46:20.623Z,64.59
2019-04-11T07:47:24.492Z,63.95
2019-04-11T07:48:21.590Z,64.77
2019-04-11T07:49:20.555Z,63.76
2019-04-11T07:50:21.345Z,64.15
2019-04-11T07:51:20.527Z,64.25
2019-04-11T07:52:20.563Z,63.12
2019-04-11T07:53:21.652Z,62.39
2019-04-11T07:54:20.583Z,62.88
2019-04-11T07:55:21.049Z,62.77
2019-04-11T07:56:20.851Z,62.37
2019-04-11T07:57:20.500Z,62.88
2019-04-11T07:58:21.534Z,62.57
2019-04-11T07:59:21.530Z,62.34
2019-04-11T08:00:33.227Z,62.23
2019-04-11T08:01:22.188Z,61.71
2019-04-11T08:02:22.371Z,62.02
2019-04-11T08:03:21.397Z,62.13
2019-04-11T08:04:21.578Z,62.30
2019-04-11T08:05:21.525Z,61.79
2019-04-11T08:06:20.369Z,61.27
2019-04-11T08:07:20.335Z,61.48
2019-04-11T08:08:21.453Z,61.89
2019-04-11T08:09:20.369Z,61.79
2019-04-11T08:10:20.607Z,62.10
2019-04-11T08:11:20.303Z,62.38
2019-04-11T08:12:21.340Z,61.69
2019-04-11T08:13:20.692Z,61.07
2019-04-11T08:14:20.337Z,61.55
2019-04-11T08:15:20.292Z,60.73
2019-04-11T08:16:20.427Z,59.69
2019-04-11T08:17:28.022Z,60.31
2019-04-11T08:18:21.236Z,60.21
2019-04-11T08:19:21.049Z,60.73
2019-04-11T08:20:21.315Z,60.83
2019-04-11T08:21:20.198Z,60.91
2019-04-11T08:22:21.010Z,60.49
2019-04-11T08:23:21.324Z,59.77
2019-04-11T08:24:20.507Z,59.15
2019-04-11T08:25:20.907Z,59.46
2019-04-11T08:26:20.126Z,59.67
2019-04-11T08:27:20.161Z,59.77
2019-04-11T08:28:20.590Z,59.84
2019-04-11T08:29:20.192Z,59.36
2019-04-11T08:30:20.111Z,57.68
2019-04-11T08:31:20.082Z,58.71
2019-04-11T08:32:20.118Z,58.40
2019-04-11T08:33:20.277Z,58.50
2019-04-11T08:34:20.790Z,58.30
2019-04-11T08:35:20.048Z,58.30
2019-04-11T08:36:20.080Z,58.71
2019-04-11T08:37:21.116Z,58.37
2019-04-11T08:38:20.369Z,59.09
2019-04-11T08:39:20.677Z,58.27
2019-04-11T08:40:19.994Z,58.17
2019-04-11T08:41:20.119Z,57.86
2019-04-11T08:42:21.220Z,58.37
2019-04-11T08:43:21.316Z,58.79
2019-04-11T08:44:19.991Z,58.55
2019-04-11T08:45:19.950Z,57.73
2019-04-11T08:46:20.639Z,57.45
2019-04-11T08:47:20.410Z,57.01
2019-04-11T08:48:21.198Z,58.25
2019-04-11T08:49:19.870Z,58.25
2019-04-11T08:50:20.638Z,58.25
2019-04-11T08:51:20.069Z,57.62
2019-04-11T08:52:20.932Z,56.90
2019-04-11T08:53:20.606Z,57.83
2019-04-11T08:54:19.841Z,57.09
2019-04-11T08:55:20.780Z,56.46
2019-04-11T08:56:20.862Z,55.13
2019-04-11T08:57:20.057Z,54.10
2019-04-11T08:58:20.502Z,55.02
2019-04-11T08:59:20.166Z,55.23
2019-04-11T09:00:19.947Z,54.41
2019-04-11T09:01:20.145Z,54.30
2019-04-11T09:02:20.576Z,54.30
2019-04-11T09:03:19.824Z,54.71
2019-04-11T09:04:19.709Z,54.10
2019-04-11T09:05:20.469Z,54.71
2019-04-11T09:06:20.828Z,54.41
2019-04-11T09:07:19.709Z,54.61
2019-04-11T09:08:20.367Z,54.90
2019-04-11T09:09:20.920Z,55.13
2019-04-11T09:10:20.044Z,55.23
2019-04-11T09:11:20.480Z,55.02
2019-04-11T09:12:22.537Z,55.00
2019-04-11T09:13:20.029Z,55.00
2019-04-11T09:14:22.574Z,54.48
2019-04-11T09:15:19.601Z,54.90
2019-04-11T09:16:19.585Z,55.10
2019-04-11T09:17:21.367Z,55.51
2019-04-11T09:18:19.703Z,55.00
2019-04-11T09:19:20.939Z,53.66
2019-04-11T09:20:19.587Z,55.10
2019-04-11T09:21:20.269Z,55.21
2019-04-11T09:22:20.523Z,55.21
2019-04-11T09:23:19.794Z,54.07
2019-04-11T09:24:19.527Z,53.84
2019-04-11T09:25:19.518Z,53.86
2019-04-11T09:26:20.186Z,53.63
2019-04-11T09:27:20.462Z,53.63
2019-04-11T09:28:19.749Z,53.66
2019-04-11T09:29:19.508Z,54.15
2019-04-11T09:30:19.503Z,52.91
2019-04-11T09:31:19.473Z,53.33
2019-04-11T09:32:20.156Z,53.22
2019-04-11T09:33:20.739Z,53.71
2019-04-11T09:34:19.674Z,52.99
2019-04-11T09:35:19.402Z,51.65
2019-04-11T09:36:19.758Z,51.55
2019-04-11T09:37:20.416Z,50.62
2019-04-11T09:38:19.387Z,50.52
2019-04-11T09:39:19.432Z,51.04
2019-04-11T09:40:19.554Z,50.60
2019-04-11T09:41:20.521Z,50.70
2019-04-11T09:42:21.389Z,51.32
2019-04-11T09:43:19.874Z,50.60
2019-04-11T09:44:20.303Z,50.19
2019-04-11T09:45:19.593Z,50.60
2019-04-11T09:46:19.281Z,51.32
2019-04-11T09:47:19.941Z,51.63
2019-04-11T09:48:19.874Z,50.27
2019-04-11T09:49:20.317Z,47.08
2019-04-11T09:50:20.307Z,46.90
2019-04-11T09:51:19.252Z,46.69
2019-04-11T09:52:19.241Z,47.31
2019-04-11T09:53:20.424Z,47.70
2019-04-11T09:54:19.779Z,48.52
2019-04-11T09:55:19.223Z,49.04
2019-04-11T09:56:19.185Z,48.93
2019-04-11T09:57:19.149Z,48.32
2019-04-11T09:58:19.634Z,48.42
2019-04-11T09:59:19.187Z,49.04
2019-04-11T10:00:19.156Z,48.50
2019-04-11T10:01:20.253Z,49.11
2019-04-11T10:02:19.186Z,48.81
2019-04-11T10:03:19.711Z,48.11
2019-04-11T10:04:19.103Z,48.50
2019-04-11T10:05:20.152Z,48.11
2019-04-11T10:06:19.467Z,48.32
2019-04-11T10:07:19.636Z,48.72
2019-04-11T10:08:19.086Z,48.32
2019-04-11T10:09:19.716Z,48.52
2019-04-11T10:10:19.118Z,48.75
2019-04-11T10:11:19.019Z,47.70
2019-04-11T10:12:20.026Z,47.08
2019-04-11T10:13:19.015Z,47.29
2019-04-11T10:14:19.726Z,47.19
2019-04-11T10:15:18.976Z,47.19
2019-04-11T10:16:19.930Z,47.49
2019-04-11T10:17:22.289Z,47.49
2019-04-11T10:18:25.242Z,48.32
2019-04-11T10:19:20.062Z,47.88
2019-04-11T10:20:20.258Z,48.50
2019-04-11T10:21:19.358Z,47.27
2019-04-11T10:22:18.891Z,47.06
2019-04-11T10:23:18.931Z,47.37
2019-04-11T10:24:20.782Z,47.04
2019-04-11T10:25:19.136Z,47.04
2019-04-11T10:26:20.149Z,47.14
2019-04-11T10:27:18.845Z,47.14
2019-04-11T10:28:19.543Z,46.50
2019-04-11T10:29:19.276Z,46.53
2019-04-11T10:30:19.492Z,46.42
2019-04-11T10:31:20.213Z,46.50
2019-04-11T10:32:19.162Z,46.50
2019-04-11T10:33:18.795Z,45.58
2019-04-11T10:34:19.632Z,46.20
2019-04-11T10:35:20.110Z,47.02
2019-04-11T10:36:19.001Z,46.71
2019-04-11T10:37:19.920Z,46.91
2019-04-11T10:38:18.692Z,45.48
2019-04-11T10:39:19.768Z,46.09
2019-04-11T10:40:21.169Z,47.12
2019-04-11T10:41:18.760Z,46.61
2019-04-11T10:42:18.673Z,45.97
2019-04-11T10:43:18.681Z,46.38
2019-04-11T10:44:18.636Z,46.09
2019-04-11T10:45:18.606Z,46.81
2019-04-11T10:46:19.605Z,45.37
2019-04-11T10:47:18.594Z,45.58
2019-04-11T10:48:18.613Z,44.96
2019-04-11T10:49:18.570Z,44.45
2019-04-11T10:50:19.580Z,45.66
2019-04-11T10:51:18.562Z,44.53
2019-04-11T10:52:18.567Z,45.15
2019-04-11T10:53:19.452Z,45.45
2019-04-11T10:54:19.660Z,44.84
2019-04-11T10:55:19.539Z,44.64
2019-04-11T10:56:18.492Z,44.23
2019-04-11T10:57:18.508Z,44.53
2019-04-11T10:58:18.530Z,45.04
2019-04-11T10:59:19.496Z,45.13
2019-04-11T11:00:18.905Z,44.82
2019-04-11T11:01:18.445Z,44.53
2019-04-11T11:02:18.433Z,41.23
2019-04-11T11:03:18.417Z,42.27
2019-04-11T11:04:18.411Z,41.13
2019-04-11T11:05:19.451Z,42.05
2019-04-11T11:06:18.412Z,42.25
2019-04-11T11:07:18.488Z,43.18
2019-04-11T11:08:19.409Z,43.20
2019-04-11T11:09:18.353Z,43.81
2019-04-11T11:10:19.475Z,44.33
2019-04-11T11:11:18.370Z,45.04
2019-04-11T11:12:19.059Z,44.64
2019-04-11T11:13:18.343Z,44.74
2019-04-11T11:14:18.789Z,44.64
2019-04-11T11:15:18.287Z,45.13
2019-04-11T11:16:18.274Z,44.71
2019-04-11T11:17:43.872Z,44.62
2019-04-11T11:18:54.166Z,45.13
2019-04-11T11:19:40.287Z,44.64
2019-04-11T11:20:26.051Z,44.41
2019-04-11T11:21:19.759Z,44.74
2019-04-11T11:22:18.871Z,44.53
2019-04-11T11:23:18.349Z,43.10
2019-04-11T11:24:18.192Z,44.23
2019-04-11T11:25:19.546Z,44.64
2019-04-11T11:26:22.556Z,45.25
2019-04-11T11:27:20.115Z,47.20
2019-04-11T11:28:18.151Z,47.09
2019-04-11T11:29:18.908Z,47.30
2019-04-11T11:30:18.792Z,48.33
2019-04-11T11:31:18.219Z,48.64
2019-04-11T11:32:18.963Z,48.97
2019-04-11T11:33:18.248Z,48.25
2019-04-11T11:34:20.294Z,48.46
2019-04-11T11:35:22.435Z,47.63
2019-04-11T11:36:19.413Z,47.63
2019-04-11T11:37:18.179Z,46.91
2019-04-11T11:38:18.021Z,47.02
2019-04-11T11:39:19.243Z,46.61
2019-04-11T11:40:18.879Z,46.50
2019-04-11T11:41:18.455Z,46.30
2019-04-11T11:42:18.007Z,46.61
2019-04-11T11:43:19.027Z,46.81
2019-04-11T11:44:19.235Z,46.40
2019-04-11T11:45:17.962Z,46.30
2019-04-11T11:46:19.364Z,46.40
2019-04-11T11:47:17.968Z,46.50
2019-04-11T11:48:20.682Z,47.22
2019-04-11T11:49:36.326Z,46.71
2019-04-11T11:50:21.779Z,47.22
2019-04-11T11:51:22.682Z,46.91
2019-04-11T11:52:19.324Z,46.91
2019-04-11T11:53:18.496Z,47.33
2019-04-11T11:54:17.869Z,47.63
2019-04-11T11:55:20.063Z,47.33
2019-04-11T11:56:17.896Z,47.63
2019-04-11T11:57:18.297Z,46.81
2019-04-11T11:58:18.758Z,47.63
2019-04-11T11:59:18.260Z,47.02
2019-04-11T12:00:17.794Z,47.22
2019-04-11T12:01:17.830Z,46.91
2019-04-11T12:02:19.789Z,46.71
2019-04-11T12:03:17.762Z,46.79
2019-04-11T12:04:18.884Z,47.00
2019-04-11T12:05:18.516Z,46.69
2019-04-11T12:06:22.282Z,46.38
2019-04-11T12:07:18.982Z,47.00
2019-04-11T12:08:18.198Z,46.28
2019-04-11T12:09:18.361Z,46.69
2019-04-11T12:10:17.664Z,47.09
2019-04-11T12:11:17.871Z,46.48
2019-04-11T12:12:17.734Z,46.17
2019-04-11T12:13:17.662Z,45.15
2019-04-11T12:14:18.076Z,45.07
2019-04-11T12:15:20.581Z,44.33
2019-04-11T12:16:21.363Z,44.33
2019-04-11T12:17:18.607Z,44.35
2019-04-11T12:18:19.752Z,42.81
2019-04-11T12:19:20.353Z,42.17
2019-04-11T12:20:18.579Z,42.69
2019-04-11T12:21:21.817Z,43.20
2019-04-11T12:22:18.543Z,40.33
2019-04-11T12:23:17.614Z,40.63
2019-04-11T12:24:17.667Z,41.25
2019-04-11T12:25:17.555Z,41.56
2019-04-11T12:26:18.428Z,41.25
2019-04-11T12:27:18.421Z,41.46
2019-04-11T12:28:17.558Z,41.25
2019-04-11T12:29:18.569Z,39.81
2019-04-11T12:30:20.864Z,40.94
2019-04-11T12:31:19.509Z,39.92
2019-04-11T12:32:17.447Z,40.22
2019-04-11T12:33:17.432Z,40.72
2019-04-11T12:34:18.545Z,39.39
2019-04-11T12:35:17.424Z,40.61
2019-04-11T12:36:18.520Z,42.15
2019-04-11T12:37:19.497Z,42.25
2019-04-11T12:38:17.435Z,42.15
2019-04-11T12:39:17.397Z,42.05
2019-04-11T12:40:17.400Z,41.95
2019-04-11T12:41:19.968Z,42.03
2019-04-11T12:42:17.335Z,43.05
2019-04-11T12:43:17.354Z,43.77
2019-04-11T12:44:17.337Z,42.44
2019-04-11T12:45:17.358Z,41.72
2019-04-11T12:46:17.320Z,41.72
2019-04-11T12:47:17.341Z,41.83
2019-04-11T12:48:17.510Z,42.52
2019-04-11T12:49:17.271Z,41.52
2019-04-11T12:50:17.274Z,41.00
2019-04-11T12:51:17.230Z,41.39
2019-04-11T12:52:17.235Z,41.31
2019-04-11T12:53:17.244Z,42.01
2019-04-11T12:54:17.319Z,40.58
2019-04-11T12:55:17.331Z,39.78